sensor_id;sensor_type;location;lat;lon;timestamp;P1;durP1;ratioP1;P2;durP2;ratioP2
34497;SDS011;20744;50.938;7.286;2024-01-16T00:00:51;19.85;;;10.80;;
34497;SDS011;20744;50.938;7.286;2024-01-16T00:03:19;18.20;;;11.30;;
34497;SDS011;20744;50.938;7.286;2024-01-16T00:05:46;19.75;;;10.73;;
34497;SDS011;20744;50.938;7.286;2024-01-16T00:08:14;18.48;;;10.35;;
34497;SDS011;20744;50.938;7.286;2024-01-16T00:10:42;21.05;;;11.10;;
34497;SDS011;20744;50.938;7.286;2024-01-16T00:13:10;17.42;;;10.60;;
34497;SDS011;20744;50.938;7.286;2024-01-16T00:15:37;22.55;;;11.60;;
34497;SDS011;20744;50.938;7.286;2024-01-16T00:18:06;23.17;;;11.00;;
34497;SDS011;20744;50.938;7.286;2024-01-16T00:20:34;20.60;;;10.90;;
34497;SDS011;20744;50.938;7.286;2024-01-16T00:23:01;17.90;;;10.80;;
34497;SDS011;20744;50.938;7.286;2024-01-16T00:25:28;18.80;;;11.38;;
34497;SDS011;20744;50.938;7.286;2024-01-16T00:27:57;21.98;;;10.60;;
34497;SDS011;20744;50.938;7.286;2024-01-16T00:30:24;17.15;;;10.52;;
34497;SDS011;20744;50.938;7.286;2024-01-16T00:32:52;19.23;;;11.15;;
34497;SDS011;20744;50.938;7.286;2024-01-16T00:35:19;20.80;;;10.85;;
34497;SDS011;20744;50.938;7.286;2024-01-16T00:37:46;21.67;;;12.18;;
34497;SDS011;20744;50.938;7.286;2024-01-16T00:40:13;22.42;;;11.00;;
34497;SDS011;20744;50.938;7.286;2024-01-16T00:42:41;21.33;;;11.63;;
34497;SDS011;20744;50.938;7.286;2024-01-16T00:45:09;21.27;;;11.32;;
34497;SDS011;20744;50.938;7.286;2024-01-16T00:47:36;19.10;;;11.93;;
34497;SDS011;20744;50.938;7.286;2024-01-16T00:50:04;21.42;;;11.95;;
34497;SDS011;20744;50.938;7.286;2024-01-16T00:52:32;23.05;;;11.27;;
34497;SDS011;20744;50.938;7.286;2024-01-16T00:54:59;22.48;;;11.88;;
34497;SDS011;20744;50.938;7.286;2024-01-16T00:57:27;27.33;;;13.45;;
34497;SDS011;20744;50.938;7.286;2024-01-16T00:59:55;26.00;;;12.68;;
34497;SDS011;20744;50.938;7.286;2024-01-16T01:02:23;30.63;;;12.48;;
34497;SDS011;20744;50.938;7.286;2024-01-16T01:04:50;20.75;;;12.38;;
34497;SDS011;20744;50.938;7.286;2024-01-16T01:07:18;28.75;;;13.10;;
34497;SDS011;20744;50.938;7.286;2024-01-16T01:09:45;23.02;;;11.98;;
34497;SDS011;20744;50.938;7.286;2024-01-16T01:12:12;27.50;;;13.48;;
34497;SDS011;20744;50.938;7.286;2024-01-16T01:14:40;21.83;;;11.50;;
34497;SDS011;20744;50.938;7.286;2024-01-16T01:17:07;21.23;;;11.77;;
34497;SDS011;20744;50.938;7.286;2024-01-16T01:19:36;27.58;;;12.48;;
34497;SDS011;20744;50.938;7.286;2024-01-16T01:22:04;29.23;;;13.00;;
34497;SDS011;20744;50.938;7.286;2024-01-16T01:24:31;28.30;;;14.15;;
34497;SDS011;20744;50.938;7.286;2024-01-16T01:26:58;22.85;;;12.90;;
34497;SDS011;20744;50.938;7.286;2024-01-16T01:29:25;29.45;;;13.40;;
34497;SDS011;20744;50.938;7.286;2024-01-16T01:31:53;33.42;;;13.45;;
34497;SDS011;20744;50.938;7.286;2024-01-16T01:34:20;23.60;;;13.23;;
34497;SDS011;20744;50.938;7.286;2024-01-16T01:36:49;22.95;;;13.88;;
34497;SDS011;20744;50.938;7.286;2024-01-16T01:39:16;21.38;;;14.68;;
34497;SDS011;20744;50.938;7.286;2024-01-16T01:41:43;31.42;;;15.50;;
34497;SDS011;20744;50.938;7.286;2024-01-16T01:44:09;27.00;;;15.25;;
34497;SDS011;20744;50.938;7.286;2024-01-16T01:46:41;24.90;;;14.70;;
34497;SDS011;20744;50.938;7.286;2024-01-16T01:49:09;27.60;;;15.23;;
34497;SDS011;20744;50.938;7.286;2024-01-16T01:51:36;31.15;;;16.10;;
34497;SDS011;20744;50.938;7.286;2024-01-16T01:54:05;30.23;;;15.10;;
34497;SDS011;20744;50.938;7.286;2024-01-16T01:56:32;29.25;;;15.27;;
34497;SDS011;20744;50.938;7.286;2024-01-16T01:59:00;33.70;;;15.00;;
34497;SDS011;20744;50.938;7.286;2024-01-16T02:01:27;29.35;;;15.57;;
34497;SDS011;20744;50.938;7.286;2024-01-16T02:03:56;28.30;;;15.73;;
34497;SDS011;20744;50.938;7.286;2024-01-16T02:06:24;35.20;;;16.17;;
34497;SDS011;20744;50.938;7.286;2024-01-16T02:08:52;29.77;;;14.60;;
34497;SDS011;20744;50.938;7.286;2024-01-16T02:11:21;26.23;;;13.85;;
34497;SDS011;20744;50.938;7.286;2024-01-16T02:13:48;30.63;;;14.85;;
34497;SDS011;20744;50.938;7.286;2024-01-16T02:16:19;30.45;;;14.52;;
34497;SDS011;20744;50.938;7.286;2024-01-16T02:18:46;30.67;;;14.15;;
34497;SDS011;20744;50.938;7.286;2024-01-16T02:21:15;28.75;;;14.68;;
34497;SDS011;20744;50.938;7.286;2024-01-16T02:23:46;22.20;;;13.25;;
34497;SDS011;20744;50.938;7.286;2024-01-16T02:26:14;25.75;;;13.68;;
34497;SDS011;20744;50.938;7.286;2024-01-16T02:28:41;31.65;;;14.13;;
34497;SDS011;20744;50.938;7.286;2024-01-16T02:31:09;29.13;;;13.05;;
34497;SDS011;20744;50.938;7.286;2024-01-16T02:33:36;28.48;;;12.50;;
34497;SDS011;20744;50.938;7.286;2024-01-16T02:36:03;22.63;;;13.15;;
34497;SDS011;20744;50.938;7.286;2024-01-16T02:38:31;21.00;;;12.48;;
34497;SDS011;20744;50.938;7.286;2024-01-16T02:40:59;26.73;;;14.15;;
34497;SDS011;20744;50.938;7.286;2024-01-16T02:43:26;23.73;;;11.95;;
34497;SDS011;20744;50.938;7.286;2024-01-16T02:45:54;26.23;;;12.32;;
34497;SDS011;20744;50.938;7.286;2024-01-16T02:48:21;24.70;;;12.77;;
34497;SDS011;20744;50.938;7.286;2024-01-16T02:50:48;24.88;;;13.32;;
34497;SDS011;20744;50.938;7.286;2024-01-16T02:53:15;18.58;;;12.30;;
34497;SDS011;20744;50.938;7.286;2024-01-16T02:55:43;27.98;;;12.82;;
34497;SDS011;20744;50.938;7.286;2024-01-16T02:58:11;28.67;;;14.07;;
34497;SDS011;20744;50.938;7.286;2024-01-16T03:00:39;24.42;;;14.27;;
34497;SDS011;20744;50.938;7.286;2024-01-16T03:03:07;29.40;;;14.95;;
34497;SDS011;20744;50.938;7.286;2024-01-16T03:05:35;24.67;;;14.30;;
34497;SDS011;20744;50.938;7.286;2024-01-16T03:08:03;27.50;;;14.82;;
34497;SDS011;20744;50.938;7.286;2024-01-16T03:10:30;29.33;;;15.93;;
34497;SDS011;20744;50.938;7.286;2024-01-16T03:12:57;26.13;;;15.57;;
34497;SDS011;20744;50.938;7.286;2024-01-16T03:15:26;24.17;;;15.45;;
34497;SDS011;20744;50.938;7.286;2024-01-16T03:17:55;31.30;;;16.27;;
34497;SDS011;20744;50.938;7.286;2024-01-16T03:20:23;27.60;;;15.60;;
34497;SDS011;20744;50.938;7.286;2024-01-16T03:22:50;35.22;;;16.15;;
34497;SDS011;20744;50.938;7.286;2024-01-16T03:25:19;32.85;;;16.05;;
34497;SDS011;20744;50.938;7.286;2024-01-16T03:27:47;32.33;;;14.85;;
34497;SDS011;20744;50.938;7.286;2024-01-16T03:30:14;24.83;;;15.00;;
34497;SDS011;20744;50.938;7.286;2024-01-16T03:32:43;32.50;;;14.63;;
34497;SDS011;20744;50.938;7.286;2024-01-16T03:35:10;27.83;;;14.50;;
34497;SDS011;20744;50.938;7.286;2024-01-16T03:37:38;24.75;;;14.07;;
34497;SDS011;20744;50.938;7.286;2024-01-16T03:40:05;28.52;;;14.73;;
34497;SDS011;20744;50.938;7.286;2024-01-16T03:42:33;26.70;;;13.63;;
34497;SDS011;20744;50.938;7.286;2024-01-16T03:45:00;23.98;;;13.95;;
34497;SDS011;20744;50.938;7.286;2024-01-16T03:47:28;32.97;;;14.15;;
34497;SDS011;20744;50.938;7.286;2024-01-16T03:49:56;24.65;;;13.18;;
34497;SDS011;20744;50.938;7.286;2024-01-16T03:52:24;33.22;;;14.48;;
34497;SDS011;20744;50.938;7.286;2024-01-16T03:54:51;28.85;;;15.23;;
34497;SDS011;20744;50.938;7.286;2024-01-16T03:57:18;27.60;;;14.40;;
34497;SDS011;20744;50.938;7.286;2024-01-16T03:59:45;26.02;;;13.20;;
34497;SDS011;20744;50.938;7.286;2024-01-16T04:02:13;25.45;;;13.38;;
34497;SDS011;20744;50.938;7.286;2024-01-16T04:04:40;27.33;;;13.80;;
34497;SDS011;20744;50.938;7.286;2024-01-16T04:07:09;27.38;;;13.80;;
34497;SDS011;20744;50.938;7.286;2024-01-16T04:09:36;20.30;;;13.15;;
34497;SDS011;20744;50.938;7.286;2024-01-16T04:12:03;30.52;;;14.15;;
34497;SDS011;20744;50.938;7.286;2024-01-16T04:14:33;26.35;;;13.27;;
34497;SDS011;20744;50.938;7.286;2024-01-16T04:17:01;31.85;;;13.80;;
34497;SDS011;20744;50.938;7.286;2024-01-16T04:19:28;22.00;;;13.50;;
34497;SDS011;20744;50.938;7.286;2024-01-16T04:21:58;29.40;;;14.40;;
34497;SDS011;20744;50.938;7.286;2024-01-16T04:24:27;29.25;;;13.75;;
34497;SDS011;20744;50.938;7.286;2024-01-16T04:26:55;25.90;;;13.77;;
34497;SDS011;20744;50.938;7.286;2024-01-16T04:29:22;28.92;;;14.32;;
34497;SDS011;20744;50.938;7.286;2024-01-16T04:31:49;29.13;;;13.60;;
34497;SDS011;20744;50.938;7.286;2024-01-16T04:34:16;26.35;;;13.35;;
34497;SDS011;20744;50.938;7.286;2024-01-16T04:36:44;33.60;;;13.63;;
34497;SDS011;20744;50.938;7.286;2024-01-16T04:39:11;28.25;;;14.10;;
34497;SDS011;20744;50.938;7.286;2024-01-16T04:41:40;28.63;;;14.38;;
34497;SDS011;20744;50.938;7.286;2024-01-16T04:44:07;32.53;;;12.93;;
34497;SDS011;20744;50.938;7.286;2024-01-16T04:46:35;28.40;;;14.90;;
34497;SDS011;20744;50.938;7.286;2024-01-16T04:49:02;25.77;;;13.80;;
34497;SDS011;20744;50.938;7.286;2024-01-16T04:51:29;26.88;;;14.32;;
34497;SDS011;20744;50.938;7.286;2024-01-16T04:53:56;28.85;;;14.50;;
34497;SDS011;20744;50.938;7.286;2024-01-16T04:56:24;28.63;;;14.15;;
34497;SDS011;20744;50.938;7.286;2024-01-16T04:58:52;34.10;;;15.23;;
34497;SDS011;20744;50.938;7.286;2024-01-16T05:01:20;25.25;;;15.68;;
34497;SDS011;20744;50.938;7.286;2024-01-16T05:03:47;25.40;;;16.55;;
34497;SDS011;20744;50.938;7.286;2024-01-16T05:06:14;27.08;;;15.38;;
34497;SDS011;20744;50.938;7.286;2024-01-16T05:08:42;30.15;;;15.40;;
34497;SDS011;20744;50.938;7.286;2024-01-16T05:11:09;29.55;;;15.85;;
34497;SDS011;20744;50.938;7.286;2024-01-16T05:13:36;27.73;;;15.48;;
34497;SDS011;20744;50.938;7.286;2024-01-16T05:16:05;26.10;;;15.07;;
34497;SDS011;20744;50.938;7.286;2024-01-16T05:18:33;27.65;;;14.73;;
34497;SDS011;20744;50.938;7.286;2024-01-16T05:21:00;25.95;;;14.85;;
34497;SDS011;20744;50.938;7.286;2024-01-16T05:23:28;29.63;;;14.60;;
34497;SDS011;20744;50.938;7.286;2024-01-16T05:25:55;30.65;;;14.82;;
34497;SDS011;20744;50.938;7.286;2024-01-16T05:28:23;27.77;;;15.48;;
34497;SDS011;20744;50.938;7.286;2024-01-16T05:30:50;28.58;;;15.68;;
34497;SDS011;20744;50.938;7.286;2024-01-16T05:33:18;23.85;;;14.65;;
34497;SDS011;20744;50.938;7.286;2024-01-16T05:35:46;30.55;;;15.38;;
34497;SDS011;20744;50.938;7.286;2024-01-16T05:38:14;34.20;;;15.52;;
34497;SDS011;20744;50.938;7.286;2024-01-16T05:40:44;27.60;;;15.38;;
34497;SDS011;20744;50.938;7.286;2024-01-16T05:43:11;31.98;;;16.25;;
34497;SDS011;20744;50.938;7.286;2024-01-16T05:45:39;27.73;;;14.18;;
34497;SDS011;20744;50.938;7.286;2024-01-16T05:48:06;25.60;;;14.02;;
34497;SDS011;20744;50.938;7.286;2024-01-16T05:50:35;23.88;;;14.48;;
34497;SDS011;20744;50.938;7.286;2024-01-16T05:53:03;30.23;;;15.60;;
34497;SDS011;20744;50.938;7.286;2024-01-16T05:55:30;30.58;;;15.40;;
34497;SDS011;20744;50.938;7.286;2024-01-16T05:57:57;29.05;;;14.40;;
34497;SDS011;20744;50.938;7.286;2024-01-16T06:00:25;30.33;;;14.68;;
34497;SDS011;20744;50.938;7.286;2024-01-16T06:02:52;29.23;;;14.25;;
34497;SDS011;20744;50.938;7.286;2024-01-16T06:05:20;32.17;;;15.13;;
34497;SDS011;20744;50.938;7.286;2024-01-16T06:07:48;31.85;;;14.43;;
34497;SDS011;20744;50.938;7.286;2024-01-16T06:10:15;27.73;;;15.50;;
34497;SDS011;20744;50.938;7.286;2024-01-16T06:12:43;32.70;;;15.27;;
34497;SDS011;20744;50.938;7.286;2024-01-16T06:15:11;33.53;;;15.32;;
34497;SDS011;20744;50.938;7.286;2024-01-16T06:17:38;31.98;;;14.77;;
34497;SDS011;20744;50.938;7.286;2024-01-16T06:20:06;32.20;;;15.25;;
34497;SDS011;20744;50.938;7.286;2024-01-16T06:22:33;29.17;;;14.95;;
34497;SDS011;20744;50.938;7.286;2024-01-16T06:25:02;32.42;;;14.32;;
34497;SDS011;20744;50.938;7.286;2024-01-16T06:27:29;26.80;;;13.52;;
34497;SDS011;20744;50.938;7.286;2024-01-16T06:29:56;31.25;;;14.27;;
34497;SDS011;20744;50.938;7.286;2024-01-16T06:32:24;25.02;;;12.38;;
34497;SDS011;20744;50.938;7.286;2024-01-16T06:34:51;27.67;;;12.43;;
34497;SDS011;20744;50.938;7.286;2024-01-16T06:37:18;25.63;;;12.15;;
34497;SDS011;20744;50.938;7.286;2024-01-16T06:39:46;34.47;;;12.55;;
34497;SDS011;20744;50.938;7.286;2024-01-16T06:42:14;29.85;;;12.38;;
34497;SDS011;20744;50.938;7.286;2024-01-16T06:44:42;29.27;;;12.30;;
34497;SDS011;20744;50.938;7.286;2024-01-16T06:47:09;25.90;;;12.45;;
34497;SDS011;20744;50.938;7.286;2024-01-16T06:49:36;28.35;;;12.85;;
34497;SDS011;20744;50.938;7.286;2024-01-16T06:52:04;29.70;;;13.23;;
34497;SDS011;20744;50.938;7.286;2024-01-16T06:54:31;27.30;;;13.07;;
34497;SDS011;20744;50.938;7.286;2024-01-16T06:56:58;29.52;;;12.68;;
34497;SDS011;20744;50.938;7.286;2024-01-16T06:59:27;31.15;;;13.50;;
34497;SDS011;20744;50.938;7.286;2024-01-16T07:01:54;25.35;;;12.02;;
34497;SDS011;20744;50.938;7.286;2024-01-16T07:04:21;24.25;;;11.52;;
34497;SDS011;20744;50.938;7.286;2024-01-16T07:06:48;24.77;;;13.02;;
34497;SDS011;20744;50.938;7.286;2024-01-16T07:09:15;24.55;;;12.13;;
34497;SDS011;20744;50.938;7.286;2024-01-16T07:11:44;25.15;;;12.15;;
34497;SDS011;20744;50.938;7.286;2024-01-16T07:14:12;27.50;;;12.05;;
34497;SDS011;20744;50.938;7.286;2024-01-16T07:16:40;29.50;;;10.68;;
34497;SDS011;20744;50.938;7.286;2024-01-16T07:19:08;23.00;;;10.48;;
34497;SDS011;20744;50.938;7.286;2024-01-16T07:21:37;24.30;;;9.38;;
34497;SDS011;20744;50.938;7.286;2024-01-16T07:24:04;27.10;;;10.07;;
34497;SDS011;20744;50.938;7.286;2024-01-16T07:26:32;20.55;;;9.15;;
34497;SDS011;20744;50.938;7.286;2024-01-16T07:28:59;25.95;;;9.95;;
34497;SDS011;20744;50.938;7.286;2024-01-16T07:31:26;25.35;;;9.50;;
34497;SDS011;20744;50.938;7.286;2024-01-16T07:33:55;20.92;;;8.70;;
34497;SDS011;20744;50.938;7.286;2024-01-16T07:36:23;21.23;;;8.90;;
34497;SDS011;20744;50.938;7.286;2024-01-16T07:38:50;19.33;;;7.85;;
34497;SDS011;20744;50.938;7.286;2024-01-16T07:41:17;19.38;;;8.05;;
34497;SDS011;20744;50.938;7.286;2024-01-16T07:43:44;20.33;;;8.38;;
34497;SDS011;20744;50.938;7.286;2024-01-16T07:46:11;21.45;;;7.85;;
34497;SDS011;20744;50.938;7.286;2024-01-16T07:48:38;23.55;;;7.80;;
34497;SDS011;20744;50.938;7.286;2024-01-16T07:51:07;26.02;;;7.70;;
34497;SDS011;20744;50.938;7.286;2024-01-16T07:53:35;18.48;;;6.47;;
34497;SDS011;20744;50.938;7.286;2024-01-16T07:56:02;30.63;;;7.50;;
34497;SDS011;20744;50.938;7.286;2024-01-16T07:58:29;19.90;;;6.68;;
34497;SDS011;20744;50.938;7.286;2024-01-16T08:00:57;17.65;;;6.35;;
34497;SDS011;20744;50.938;7.286;2024-01-16T08:03:24;15.88;;;5.93;;
34497;SDS011;20744;50.938;7.286;2024-01-16T08:05:51;16.73;;;6.18;;
34497;SDS011;20744;50.938;7.286;2024-01-16T08:08:20;23.80;;;5.40;;
34497;SDS011;20744;50.938;7.286;2024-01-16T08:10:48;18.02;;;4.57;;
34497;SDS011;20744;50.938;7.286;2024-01-16T08:13:15;14.25;;;4.57;;
34497;SDS011;20744;50.938;7.286;2024-01-16T08:15:42;15.98;;;4.57;;
34497;SDS011;20744;50.938;7.286;2024-01-16T08:18:10;14.73;;;4.90;;
34497;SDS011;20744;50.938;7.286;2024-01-16T08:20:37;18.77;;;4.63;;
34497;SDS011;20744;50.938;7.286;2024-01-16T08:23:04;18.70;;;4.03;;
34497;SDS011;20744;50.938;7.286;2024-01-16T08:25:33;11.68;;;4.15;;
34497;SDS011;20744;50.938;7.286;2024-01-16T08:28:00;19.67;;;4.75;;
34497;SDS011;20744;50.938;7.286;2024-01-16T08:30:28;13.57;;;4.32;;
34497;SDS011;20744;50.938;7.286;2024-01-16T08:32:55;18.33;;;3.95;;
34497;SDS011;20744;50.938;7.286;2024-01-16T08:35:22;15.88;;;4.60;;
34497;SDS011;20744;50.938;7.286;2024-01-16T08:37:50;16.42;;;3.53;;
34497;SDS011;20744;50.938;7.286;2024-01-16T08:40:17;18.77;;;4.18;;
34497;SDS011;20744;50.938;7.286;2024-01-16T08:42:45;12.65;;;3.45;;
34497;SDS011;20744;50.938;7.286;2024-01-16T08:45:16;17.60;;;5.07;;
34497;SDS011;20744;50.938;7.286;2024-01-16T08:47:44;11.07;;;3.45;;
34497;SDS011;20744;50.938;7.286;2024-01-16T08:50:11;10.20;;;3.13;;
34497;SDS011;20744;50.938;7.286;2024-01-16T08:52:38;9.27;;;2.72;;
34497;SDS011;20744;50.938;7.286;2024-01-16T08:55:06;13.63;;;3.40;;
34497;SDS011;20744;50.938;7.286;2024-01-16T08:57:34;12.32;;;2.70;;
34497;SDS011;20744;50.938;7.286;2024-01-16T09:00:03;19.55;;;4.25;;
34497;SDS011;20744;50.938;7.286;2024-01-16T09:02:31;10.75;;;2.95;;
34497;SDS011;20744;50.938;7.286;2024-01-16T09:04:58;12.93;;;2.67;;
34497;SDS011;20744;50.938;7.286;2024-01-16T09:07:26;11.40;;;2.60;;
34497;SDS011;20744;50.938;7.286;2024-01-16T09:09:53;12.23;;;3.15;;
34497;SDS011;20744;50.938;7.286;2024-01-16T09:12:20;9.75;;;3.13;;
34497;SDS011;20744;50.938;7.286;2024-01-16T09:14:48;12.40;;;2.80;;
34497;SDS011;20744;50.938;7.286;2024-01-16T09:17:16;9.75;;;2.88;;
34497;SDS011;20744;50.938;7.286;2024-01-16T09:19:43;11.90;;;2.42;;
34497;SDS011;20744;50.938;7.286;2024-01-16T09:22:11;18.35;;;3.17;;
34497;SDS011;20744;50.938;7.286;2024-01-16T09:24:40;10.50;;;2.97;;
34497;SDS011;20744;50.938;7.286;2024-01-16T09:27:07;15.57;;;3.47;;
34497;SDS011;20744;50.938;7.286;2024-01-16T09:29:35;13.18;;;2.33;;
34497;SDS011;20744;50.938;7.286;2024-01-16T09:32:03;16.58;;;3.42;;
34497;SDS011;20744;50.938;7.286;2024-01-16T09:34:32;11.18;;;3.25;;
34497;SDS011;20744;50.938;7.286;2024-01-16T09:36:59;10.73;;;2.95;;
34497;SDS011;20744;50.938;7.286;2024-01-16T09:39:28;10.52;;;2.47;;
34497;SDS011;20744;50.938;7.286;2024-01-16T09:41:57;9.88;;;2.47;;
34497;SDS011;20744;50.938;7.286;2024-01-16T09:44:27;11.23;;;2.22;;
34497;SDS011;20744;50.938;7.286;2024-01-16T09:46:54;11.15;;;2.22;;
34497;SDS011;20744;50.938;7.286;2024-01-16T09:49:22;13.10;;;2.28;;
34497;SDS011;20744;50.938;7.286;2024-01-16T09:51:51;10.73;;;2.00;;
34497;SDS011;20744;50.938;7.286;2024-01-16T09:54:18;9.05;;;2.30;;
34497;SDS011;20744;50.938;7.286;2024-01-16T09:56:46;10.23;;;2.33;;
34497;SDS011;20744;50.938;7.286;2024-01-16T09:59:15;10.15;;;2.20;;
34497;SDS011;20744;50.938;7.286;2024-01-16T10:01:44;9.60;;;1.83;;
34497;SDS011;20744;50.938;7.286;2024-01-16T10:04:12;12.80;;;2.03;;
34497;SDS011;20744;50.938;7.286;2024-01-16T10:06:39;12.52;;;1.75;;
34497;SDS011;20744;50.938;7.286;2024-01-16T10:09:09;11.18;;;2.10;;
34497;SDS011;20744;50.938;7.286;2024-01-16T10:11:37;13.30;;;2.30;;
34497;SDS011;20744;50.938;7.286;2024-01-16T10:14:05;10.82;;;1.95;;
34497;SDS011;20744;50.938;7.286;2024-01-16T10:19:17;9.60;;;2.17;;
34497;SDS011;20744;50.938;7.286;2024-01-16T10:21:44;11.13;;;2.50;;
34497;SDS011;20744;50.938;7.286;2024-01-16T10:24:13;16.50;;;3.20;;
34497;SDS011;20744;50.938;7.286;2024-01-16T10:26:41;12.95;;;2.70;;
34497;SDS011;20744;50.938;7.286;2024-01-16T10:29:08;6.82;;;2.45;;
34497;SDS011;20744;50.938;7.286;2024-01-16T10:31:35;11.05;;;2.72;;
34497;SDS011;20744;50.938;7.286;2024-01-16T10:34:07;11.35;;;2.35;;
34497;SDS011;20744;50.938;7.286;2024-01-16T10:36:46;7.78;;;2.03;;
34497;SDS011;20744;50.938;7.286;2024-01-16T10:39:19;11.43;;;2.70;;
34497;SDS011;20744;50.938;7.286;2024-01-16T10:41:53;11.27;;;2.45;;
34497;SDS011;20744;50.938;7.286;2024-01-16T10:44:21;7.30;;;2.70;;
34497;SDS011;20744;50.938;7.286;2024-01-16T10:46:49;12.52;;;2.42;;
34497;SDS011;20744;50.938;7.286;2024-01-16T10:49:17;11.55;;;2.95;;
34497;SDS011;20744;50.938;7.286;2024-01-16T10:51:44;10.43;;;2.50;;
34497;SDS011;20744;50.938;7.286;2024-01-16T10:54:12;9.80;;;2.55;;
34497;SDS011;20744;50.938;7.286;2024-01-16T10:56:44;11.57;;;2.33;;
34497;SDS011;20744;50.938;7.286;2024-01-16T10:59:16;9.85;;;2.20;;
34497;SDS011;20744;50.938;7.286;2024-01-16T11:01:49;7.38;;;2.30;;
34497;SDS011;20744;50.938;7.286;2024-01-16T11:04:18;12.93;;;2.50;;
34497;SDS011;20744;50.938;7.286;2024-01-16T11:06:45;8.98;;;2.67;;
34497;SDS011;20744;50.938;7.286;2024-01-16T11:09:12;12.90;;;2.60;;
34497;SDS011;20744;50.938;7.286;2024-01-16T11:11:44;16.55;;;2.92;;
34497;SDS011;20744;50.938;7.286;2024-01-16T11:14:11;10.48;;;2.33;;
34497;SDS011;20744;50.938;7.286;2024-01-16T11:16:40;14.07;;;3.00;;
34497;SDS011;20744;50.938;7.286;2024-01-16T11:19:08;9.52;;;2.45;;
34497;SDS011;20744;50.938;7.286;2024-01-16T11:21:36;12.55;;;2.67;;
34497;SDS011;20744;50.938;7.286;2024-01-16T11:24:04;14.07;;;3.28;;
34497;SDS011;20744;50.938;7.286;2024-01-16T11:26:32;9.85;;;2.20;;
34497;SDS011;20744;50.938;7.286;2024-01-16T11:31:59;9.50;;;2.42;;
34497;SDS011;20744;50.938;7.286;2024-01-16T11:37:13;17.87;;;2.90;;
34497;SDS011;20744;50.938;7.286;2024-01-16T11:39:41;9.60;;;2.00;;
34497;SDS011;20744;50.938;7.286;2024-01-16T11:42:08;7.85;;;2.35;;
34497;SDS011;20744;50.938;7.286;2024-01-16T11:44:41;18.27;;;2.50;;
34497;SDS011;20744;50.938;7.286;2024-01-16T11:47:07;11.88;;;2.55;;
34497;SDS011;20744;50.938;7.286;2024-01-16T11:49:36;19.17;;;2.53;;
34497;SDS011;20744;50.938;7.286;2024-01-16T11:52:03;6.70;;;2.13;;
34497;SDS011;20744;50.938;7.286;2024-01-16T11:54:32;10.32;;;2.22;;
34497;SDS011;20744;50.938;7.286;2024-01-16T11:57:12;14.68;;;2.40;;
34497;SDS011;20744;50.938;7.286;2024-01-16T11:59:52;10.60;;;2.35;;
34497;SDS011;20744;50.938;7.286;2024-01-16T12:02:25;9.70;;;2.53;;
34497;SDS011;20744;50.938;7.286;2024-01-16T12:04:53;8.95;;;2.20;;
34497;SDS011;20744;50.938;7.286;2024-01-16T12:07:21;6.47;;;2.10;;
34497;SDS011;20744;50.938;7.286;2024-01-16T12:09:49;11.25;;;2.15;;
34497;SDS011;20744;50.938;7.286;2024-01-16T12:12:16;12.38;;;2.40;;
34497;SDS011;20744;50.938;7.286;2024-01-16T12:14:56;10.43;;;2.38;;
34497;SDS011;20744;50.938;7.286;2024-01-16T12:17:24;10.63;;;2.50;;
34497;SDS011;20744;50.938;7.286;2024-01-16T12:19:51;6.75;;;2.05;;
34497;SDS011;20744;50.938;7.286;2024-01-16T12:22:18;8.10;;;2.38;;
34497;SDS011;20744;50.938;7.286;2024-01-16T12:24:47;11.70;;;2.47;;
34497;SDS011;20744;50.938;7.286;2024-01-16T12:27:15;11.75;;;2.30;;
34497;SDS011;20744;50.938;7.286;2024-01-16T12:29:42;10.73;;;2.35;;
34497;SDS011;20744;50.938;7.286;2024-01-16T12:32:11;11.57;;;2.60;;
34497;SDS011;20744;50.938;7.286;2024-01-16T12:34:43;9.38;;;2.35;;
34497;SDS011;20744;50.938;7.286;2024-01-16T12:37:11;12.13;;;2.13;;
34497;SDS011;20744;50.938;7.286;2024-01-16T12:39:39;9.70;;;2.30;;
34497;SDS011;20744;50.938;7.286;2024-01-16T12:42:06;11.43;;;2.45;;
34497;SDS011;20744;50.938;7.286;2024-01-16T12:44:36;7.55;;;1.77;;
34497;SDS011;20744;50.938;7.286;2024-01-16T12:47:04;11.45;;;2.30;;
34497;SDS011;20744;50.938;7.286;2024-01-16T12:49:32;11.82;;;2.65;;
34497;SDS011;20744;50.938;7.286;2024-01-16T12:52:16;13.60;;;3.00;;
34497;SDS011;20744;50.938;7.286;2024-01-16T12:54:44;7.63;;;2.30;;
34497;SDS011;20744;50.938;7.286;2024-01-16T12:57:16;14.00;;;2.90;;
34497;SDS011;20744;50.938;7.286;2024-01-16T12:59:44;9.93;;;2.03;;
34497;SDS011;20744;50.938;7.286;2024-01-16T13:02:19;8.68;;;2.05;;
34497;SDS011;20744;50.938;7.286;2024-01-16T13:04:49;8.00;;;2.25;;
34497;SDS011;20744;50.938;7.286;2024-01-16T13:07:24;15.38;;;2.92;;
34497;SDS011;20744;50.938;7.286;2024-01-16T13:10:05;11.18;;;2.50;;
34497;SDS011;20744;50.938;7.286;2024-01-16T13:12:32;13.35;;;2.80;;
34497;SDS011;20744;50.938;7.286;2024-01-16T13:15:01;8.05;;;2.50;;
34497;SDS011;20744;50.938;7.286;2024-01-16T13:17:30;13.10;;;3.03;;
34497;SDS011;20744;50.938;7.286;2024-01-16T13:19:59;10.65;;;2.33;;
34497;SDS011;20744;50.938;7.286;2024-01-16T13:22:26;8.65;;;2.33;;
34497;SDS011;20744;50.938;7.286;2024-01-16T13:24:54;8.60;;;2.20;;
34497;SDS011;20744;50.938;7.286;2024-01-16T13:27:22;10.18;;;2.28;;
34497;SDS011;20744;50.938;7.286;2024-01-16T13:29:51;8.52;;;2.72;;
34497;SDS011;20744;50.938;7.286;2024-01-16T13:32:19;7.82;;;2.25;;
34497;SDS011;20744;50.938;7.286;2024-01-16T13:34:46;11.07;;;2.33;;
34497;SDS011;20744;50.938;7.286;2024-01-16T13:37:21;8.77;;;2.38;;
34497;SDS011;20744;50.938;7.286;2024-01-16T13:39:48;9.95;;;2.50;;
34497;SDS011;20744;50.938;7.286;2024-01-16T13:42:15;11.07;;;2.10;;
34497;SDS011;20744;50.938;7.286;2024-01-16T13:44:45;14.20;;;2.63;;
34497;SDS011;20744;50.938;7.286;2024-01-16T13:47:16;5.85;;;2.20;;
34497;SDS011;20744;50.938;7.286;2024-01-16T13:49:45;7.10;;;2.20;;
34497;SDS011;20744;50.938;7.286;2024-01-16T13:52:12;11.70;;;2.22;;
34497;SDS011;20744;50.938;7.286;2024-01-16T13:54:40;9.65;;;2.25;;
34497;SDS011;20744;50.938;7.286;2024-01-16T13:57:08;9.05;;;2.35;;
34497;SDS011;20744;50.938;7.286;2024-01-16T13:59:36;12.57;;;2.60;;
34497;SDS011;20744;50.938;7.286;2024-01-16T14:02:03;9.20;;;2.65;;
34497;SDS011;20744;50.938;7.286;2024-01-16T14:04:33;9.90;;;2.80;;
34497;SDS011;20744;50.938;7.286;2024-01-16T14:07:00;7.45;;;2.35;;
34497;SDS011;20744;50.938;7.286;2024-01-16T14:09:29;5.20;;;2.53;;
34497;SDS011;20744;50.938;7.286;2024-01-16T14:12:00;10.57;;;2.80;;
34497;SDS011;20744;50.938;7.286;2024-01-16T14:14:28;8.10;;;2.80;;
34497;SDS011;20744;50.938;7.286;2024-01-16T14:16:55;10.18;;;3.17;;
34497;SDS011;20744;50.938;7.286;2024-01-16T14:19:23;11.68;;;2.75;;
34497;SDS011;20744;50.938;7.286;2024-01-16T14:21:51;9.23;;;2.40;;
34497;SDS011;20744;50.938;7.286;2024-01-16T14:24:19;8.20;;;2.97;;
34497;SDS011;20744;50.938;7.286;2024-01-16T14:26:46;10.77;;;2.88;;
34497;SDS011;20744;50.938;7.286;2024-01-16T14:29:15;10.52;;;2.15;;
34497;SDS011;20744;50.938;7.286;2024-01-16T14:31:43;8.13;;;2.75;;
34497;SDS011;20744;50.938;7.286;2024-01-16T14:34:13;6.03;;;2.65;;
34497;SDS011;20744;50.938;7.286;2024-01-16T14:36:41;8.02;;;2.78;;
34497;SDS011;20744;50.938;7.286;2024-01-16T14:39:08;7.78;;;3.08;;
34497;SDS011;20744;50.938;7.286;2024-01-16T14:41:38;11.05;;;3.60;;
34497;SDS011;20744;50.938;7.286;2024-01-16T14:44:07;11.50;;;3.10;;